sensor_id;sensor_type;location;lat;lon;timestamp;P1;durP1;ratioP1;P2;durP2;ratioP2
80199;SDS011;69520;44.900;-0.764;2023-08-31T00:02:23;8.13;;;2.13;;
80199;SDS011;69520;44.900;-0.764;2023-08-31T00:04:51;11.80;;;3.00;;
80199;SDS011;69520;44.900;-0.764;2023-08-31T00:07:18;9.48;;;2.15;;
80199;SDS011;69520;44.900;-0.764;2023-08-31T00:09:44;7.85;;;2.00;;
80199;SDS011;69520;44.900;-0.764;2023-08-31T00:12:10;8.77;;;3.00;;
80199;SDS011;69520;44.900;-0.764;2023-08-31T00:14:36;8.23;;;2.23;;
80199;SDS011;69520;44.900;-0.764;2023-08-31T00:17:03;7.57;;;2.30;;
80199;SDS011;69520;44.900;-0.764;2023-08-31T00:19:29;10.18;;;2.55;;
80199;SDS011;69520;44.900;-0.764;2023-08-31T00:21:55;9.77;;;2.22;;
80199;SDS011;69520;44.900;-0.764;2023-08-31T00:24:21;8.82;;;2.38;;
80199;SDS011;69520;44.900;-0.764;2023-08-31T00:26:53;8.47;;;1.93;;
80199;SDS011;69520;44.900;-0.764;2023-08-31T00:29:19;7.32;;;2.15;;
80199;SDS011;69520;44.900;-0.764;2023-08-31T00:31:45;9.57;;;2.20;;
80199;SDS011;69520;44.900;-0.764;2023-08-31T00:34:13;9.45;;;2.00;;
80199;SDS011;69520;44.900;-0.764;2023-08-31T00:36:42;9.20;;;2.20;;
80199;SDS011;69520;44.900;-0.764;2023-08-31T00:39:08;8.33;;;2.33;;
80199;SDS011;69520;44.900;-0.764;2023-08-31T00:41:36;6.45;;;2.10;;
80199;SDS011;69520;44.900;-0.764;2023-08-31T00:44:02;6.97;;;2.10;;
80199;SDS011;69520;44.900;-0.764;2023-08-31T00:46:30;7.65;;;2.22;;
80199;SDS011;69520;44.900;-0.764;2023-08-31T00:48:56;6.55;;;2.10;;
80199;SDS011;69520;44.900;-0.764;2023-08-31T00:51:23;8.83;;;2.00;;
80199;SDS011;69520;44.900;-0.764;2023-08-31T00:53:50;7.93;;;2.00;;
80199;SDS011;69520;44.900;-0.764;2023-08-31T00:56:18;8.70;;;2.42;;
80199;SDS011;69520;44.900;-0.764;2023-08-31T00:58:44;7.97;;;2.20;;
80199;SDS011;69520;44.900;-0.764;2023-08-31T01:06:12;10.50;;;2.20;;
80199;SDS011;69520;44.900;-0.764;2023-08-31T01:11:17;9.27;;;2.00;;
80199;SDS011;69520;44.900;-0.764;2023-08-31T01:13:48;10.40;;;2.50;;
80199;SDS011;69520;44.900;-0.764;2023-08-31T01:16:15;7.80;;;2.10;;
80199;SDS011;69520;44.900;-0.764;2023-08-31T01:18:42;9.93;;;2.60;;
80199;SDS011;69520;44.900;-0.764;2023-08-31T01:23:51;9.00;;;2.15;;
80199;SDS011;69520;44.900;-0.764;2023-08-31T01:26:18;8.32;;;2.40;;
80199;SDS011;69520;44.900;-0.764;2023-08-31T01:28:44;9.17;;;2.30;;
80199;SDS011;69520;44.900;-0.764;2023-08-31T01:31:11;7.78;;;2.35;;
80199;SDS011;69520;44.900;-0.764;2023-08-31T01:33:37;8.07;;;2.17;;
80199;SDS011;69520;44.900;-0.764;2023-08-31T01:36:03;8.52;;;2.50;;
80199;SDS011;69520;44.900;-0.764;2023-08-31T01:38:30;7.15;;;2.00;;
80199;SDS011;69520;44.900;-0.764;2023-08-31T01:41:00;6.13;;;2.10;;
80199;SDS011;69520;44.900;-0.764;2023-08-31T01:43:28;7.55;;;2.47;;
80199;SDS011;69520;44.900;-0.764;2023-08-31T01:45:54;5.72;;;1.85;;
80199;SDS011;69520;44.900;-0.764;2023-08-31T01:48:21;6.22;;;1.67;;
80199;SDS011;69520;44.900;-0.764;2023-08-31T01:50:47;7.60;;;2.08;;
80199;SDS011;69520;44.900;-0.764;2023-08-31T01:53:13;6.93;;;1.80;;
80199;SDS011;69520;44.900;-0.764;2023-08-31T01:55:39;8.52;;;2.10;;
80199;SDS011;69520;44.900;-0.764;2023-08-31T01:58:05;8.05;;;2.35;;
80199;SDS011;69520;44.900;-0.764;2023-08-31T02:00:31;6.63;;;1.90;;
80199;SDS011;69520;44.900;-0.764;2023-08-31T02:03:00;7.50;;;2.15;;
80199;SDS011;69520;44.900;-0.764;2023-08-31T02:05:26;7.07;;;2.13;;
80199;SDS011;69520;44.900;-0.764;2023-08-31T02:07:52;7.80;;;2.65;;
80199;SDS011;69520;44.900;-0.764;2023-08-31T02:10:18;7.15;;;2.15;;
80199;SDS011;69520;44.900;-0.764;2023-08-31T02:12:44;8.43;;;2.58;;
80199;SDS011;69520;44.900;-0.764;2023-08-31T02:15:10;7.95;;;2.20;;
80199;SDS011;69520;44.900;-0.764;2023-08-31T02:17:36;10.50;;;2.73;;
80199;SDS011;69520;44.900;-0.764;2023-08-31T02:20:02;7.38;;;2.25;;
80199;SDS011;69520;44.900;-0.764;2023-08-31T02:22:30;9.63;;;2.70;;
80199;SDS011;69520;44.900;-0.764;2023-08-31T02:24:56;9.85;;;2.42;;
80199;SDS011;69520;44.900;-0.764;2023-08-31T02:27:22;8.02;;;2.20;;
80199;SDS011;69520;44.900;-0.764;2023-08-31T02:29:48;8.00;;;2.27;;
80199;SDS011;69520;44.900;-0.764;2023-08-31T02:32:14;8.15;;;2.45;;
80199;SDS011;69520;44.900;-0.764;2023-08-31T02:34:40;8.50;;;2.65;;
80199;SDS011;69520;44.900;-0.764;2023-08-31T02:37:06;7.57;;;2.30;;
80199;SDS011;69520;44.900;-0.764;2023-08-31T02:39:32;8.70;;;2.67;;
80199;SDS011;69520;44.900;-0.764;2023-08-31T02:41:58;8.60;;;3.20;;
80199;SDS011;69520;44.900;-0.764;2023-08-31T02:44:24;9.57;;;2.40;;
80199;SDS011;69520;44.900;-0.764;2023-08-31T02:46:50;9.02;;;2.33;;
80199;SDS011;69520;44.900;-0.764;2023-08-31T02:49:16;8.88;;;2.75;;
80199;SDS011;69520;44.900;-0.764;2023-08-31T02:51:42;8.57;;;3.00;;
80199;SDS011;69520;44.900;-0.764;2023-08-31T02:54:08;8.63;;;2.40;;
80199;SDS011;69520;44.900;-0.764;2023-08-31T02:56:34;8.57;;;2.30;;
80199;SDS011;69520;44.900;-0.764;2023-08-31T02:59:00;8.23;;;2.58;;
80199;SDS011;69520;44.900;-0.764;2023-08-31T03:01:26;8.48;;;2.58;;
80199;SDS011;69520;44.900;-0.764;2023-08-31T03:03:52;8.63;;;2.50;;
80199;SDS011;69520;44.900;-0.764;2023-08-31T03:06:18;8.90;;;2.83;;
80199;SDS011;69520;44.900;-0.764;2023-08-31T03:08:44;8.10;;;2.70;;
80199;SDS011;69520;44.900;-0.764;2023-08-31T03:11:11;9.35;;;2.83;;
80199;SDS011;69520;44.900;-0.764;2023-08-31T03:13:39;8.88;;;2.47;;
80199;SDS011;69520;44.900;-0.764;2023-08-31T03:16:06;10.05;;;2.53;;
80199;SDS011;69520;44.900;-0.764;2023-08-31T03:18:32;9.07;;;2.70;;
80199;SDS011;69520;44.900;-0.764;2023-08-31T03:20:58;10.95;;;3.20;;
80199;SDS011;69520;44.900;-0.764;2023-08-31T03:23:25;7.82;;;2.50;;
80199;SDS011;69520;44.900;-0.764;2023-08-31T03:25:51;8.93;;;2.67;;
80199;SDS011;69520;44.900;-0.764;2023-08-31T03:28:17;11.13;;;2.53;;
80199;SDS011;69520;44.900;-0.764;2023-08-31T03:30:43;10.37;;;2.70;;
80199;SDS011;69520;44.900;-0.764;2023-08-31T03:33:10;8.18;;;2.70;;
80199;SDS011;69520;44.900;-0.764;2023-08-31T03:35:37;9.25;;;2.50;;
80199;SDS011;69520;44.900;-0.764;2023-08-31T03:38:03;9.40;;;2.50;;
80199;SDS011;69520;44.900;-0.764;2023-08-31T03:40:29;9.00;;;2.80;;
80199;SDS011;69520;44.900;-0.764;2023-08-31T03:42:55;7.13;;;2.30;;
80199;SDS011;69520;44.900;-0.764;2023-08-31T03:45:21;8.27;;;2.65;;
80199;SDS011;69520;44.900;-0.764;2023-08-31T03:47:47;6.68;;;2.63;;
80199;SDS011;69520;44.900;-0.764;2023-08-31T03:50:13;8.88;;;2.60;;
80199;SDS011;69520;44.900;-0.764;2023-08-31T03:52:39;8.98;;;2.50;;
80199;SDS011;69520;44.900;-0.764;2023-08-31T03:55:05;11.80;;;2.80;;
80199;SDS011;69520;44.900;-0.764;2023-08-31T03:57:31;8.57;;;2.42;;
80199;SDS011;69520;44.900;-0.764;2023-08-31T03:59:57;8.13;;;2.30;;
80199;SDS011;69520;44.900;-0.764;2023-08-31T04:02:23;8.40;;;2.45;;
80199;SDS011;69520;44.900;-0.764;2023-08-31T04:04:49;9.07;;;2.60;;
80199;SDS011;69520;44.900;-0.764;2023-08-31T04:07:15;9.37;;;2.60;;
80199;SDS011;69520;44.900;-0.764;2023-08-31T04:09:41;8.45;;;2.63;;
80199;SDS011;69520;44.900;-0.764;2023-08-31T04:12:07;7.80;;;2.88;;
80199;SDS011;69520;44.900;-0.764;2023-08-31T04:14:33;8.75;;;2.38;;
80199;SDS011;69520;44.900;-0.764;2023-08-31T04:16:59;9.18;;;2.50;;
80199;SDS011;69520;44.900;-0.764;2023-08-31T04:19:25;7.53;;;2.50;;
80199;SDS011;69520;44.900;-0.764;2023-08-31T04:21:51;8.73;;;2.70;;
80199;SDS011;69520;44.900;-0.764;2023-08-31T04:24:17;9.60;;;2.63;;
80199;SDS011;69520;44.900;-0.764;2023-08-31T04:26:43;8.70;;;2.40;;
80199;SDS011;69520;44.900;-0.764;2023-08-31T04:29:10;7.57;;;2.78;;
80199;SDS011;69520;44.900;-0.764;2023-08-31T04:31:36;12.43;;;3.27;;
80199;SDS011;69520;44.900;-0.764;2023-08-31T04:34:03;8.40;;;2.95;;
80199;SDS011;69520;44.900;-0.764;2023-08-31T04:36:29;9.38;;;2.92;;
80199;SDS011;69520;44.900;-0.764;2023-08-31T04:38:55;7.15;;;2.15;;
80199;SDS011;69520;44.900;-0.764;2023-08-31T04:41:21;7.55;;;2.50;;
80199;SDS011;69520;44.900;-0.764;2023-08-31T04:43:47;7.53;;;2.40;;
80199;SDS011;69520;44.900;-0.764;2023-08-31T04:46:13;8.23;;;2.50;;
80199;SDS011;69520;44.900;-0.764;2023-08-31T04:48:39;8.13;;;2.55;;
80199;SDS011;69520;44.900;-0.764;2023-08-31T04:51:05;11.07;;;2.80;;
80199;SDS011;69520;44.900;-0.764;2023-08-31T04:53:31;8.52;;;2.25;;
80199;SDS011;69520;44.900;-0.764;2023-08-31T04:55:58;10.57;;;2.60;;
80199;SDS011;69520;44.900;-0.764;2023-08-31T04:58:24;9.15;;;2.55;;
80199;SDS011;69520;44.900;-0.764;2023-08-31T05:00:51;9.68;;;2.65;;
80199;SDS011;69520;44.900;-0.764;2023-08-31T05:03:17;6.53;;;2.17;;
80199;SDS011;69520;44.900;-0.764;2023-08-31T05:05:43;9.20;;;2.75;;
80199;SDS011;69520;44.900;-0.764;2023-08-31T05:08:09;10.20;;;3.03;;
80199;SDS011;69520;44.900;-0.764;2023-08-31T05:10:35;9.00;;;2.40;;
80199;SDS011;69520;44.900;-0.764;2023-08-31T05:13:01;6.78;;;2.60;;
80199;SDS011;69520;44.900;-0.764;2023-08-31T05:15:29;9.23;;;2.53;;
80199;SDS011;69520;44.900;-0.764;2023-08-31T05:17:55;8.43;;;2.58;;
80199;SDS011;69520;44.900;-0.764;2023-08-31T05:20:21;7.60;;;2.43;;
80199;SDS011;69520;44.900;-0.764;2023-08-31T05:22:48;6.97;;;2.35;;
80199;SDS011;69520;44.900;-0.764;2023-08-31T05:25:14;9.55;;;2.58;;
80199;SDS011;69520;44.900;-0.764;2023-08-31T05:27:40;7.43;;;2.10;;
80199;SDS011;69520;44.900;-0.764;2023-08-31T05:30:06;6.68;;;2.35;;
80199;SDS011;69520;44.900;-0.764;2023-08-31T05:32:33;7.63;;;2.20;;
80199;SDS011;69520;44.900;-0.764;2023-08-31T05:34:59;7.95;;;2.50;;
80199;SDS011;69520;44.900;-0.764;2023-08-31T05:37:25;9.55;;;2.60;;
80199;SDS011;69520;44.900;-0.764;2023-08-31T05:39:51;10.82;;;2.97;;
80199;SDS011;69520;44.900;-0.764;2023-08-31T05:42:17;10.57;;;2.33;;
80199;SDS011;69520;44.900;-0.764;2023-08-31T05:44:43;7.67;;;2.27;;
80199;SDS011;69520;44.900;-0.764;2023-08-31T05:47:09;11.95;;;3.10;;
80199;SDS011;69520;44.900;-0.764;2023-08-31T05:49:35;8.75;;;2.50;;
80199;SDS011;69520;44.900;-0.764;2023-08-31T05:52:01;11.25;;;2.72;;
80199;SDS011;69520;44.900;-0.764;2023-08-31T05:54:28;8.57;;;2.60;;
80199;SDS011;69520;44.900;-0.764;2023-08-31T05:56:54;10.23;;;2.50;;
80199;SDS011;69520;44.900;-0.764;2023-08-31T05:59:20;10.18;;;2.63;;
80199;SDS011;69520;44.900;-0.764;2023-08-31T06:01:46;10.73;;;2.40;;
80199;SDS011;69520;44.900;-0.764;2023-08-31T06:04:12;10.55;;;2.50;;
80199;SDS011;69520;44.900;-0.764;2023-08-31T06:06:38;8.70;;;2.63;;
80199;SDS011;69520;44.900;-0.764;2023-08-31T06:09:04;8.27;;;2.40;;
80199;SDS011;69520;44.900;-0.764;2023-08-31T06:11:32;9.63;;;2.33;;
80199;SDS011;69520;44.900;-0.764;2023-08-31T06:13:58;13.00;;;3.40;;
80199;SDS011;69520;44.900;-0.764;2023-08-31T06:16:24;11.85;;;3.30;;
80199;SDS011;69520;44.900;-0.764;2023-08-31T06:18:50;11.10;;;3.00;;
80199;SDS011;69520;44.900;-0.764;2023-08-31T06:21:16;10.23;;;3.07;;
80199;SDS011;69520;44.900;-0.764;2023-08-31T06:23:42;8.57;;;2.60;;
80199;SDS011;69520;44.900;-0.764;2023-08-31T06:26:08;8.50;;;2.85;;
80199;SDS011;69520;44.900;-0.764;2023-08-31T06:28:34;9.38;;;3.10;;
80199;SDS011;69520;44.900;-0.764;2023-08-31T06:31:00;9.50;;;2.50;;
80199;SDS011;69520;44.900;-0.764;2023-08-31T06:33:26;10.57;;;2.40;;
80199;SDS011;69520;44.900;-0.764;2023-08-31T06:35:52;9.60;;;3.15;;
80199;SDS011;69520;44.900;-0.764;2023-08-31T06:38:18;11.80;;;3.00;;
80199;SDS011;69520;44.900;-0.764;2023-08-31T06:40:44;10.50;;;2.22;;
80199;SDS011;69520;44.900;-0.764;2023-08-31T06:43:10;9.80;;;2.45;;
80199;SDS011;69520;44.900;-0.764;2023-08-31T06:45:37;7.63;;;2.60;;
80199;SDS011;69520;44.900;-0.764;2023-08-31T06:48:03;14.10;;;3.10;;
80199;SDS011;69520;44.900;-0.764;2023-08-31T06:50:29;8.82;;;2.85;;
80199;SDS011;69520;44.900;-0.764;2023-08-31T06:52:55;7.43;;;2.60;;
80199;SDS011;69520;44.900;-0.764;2023-08-31T06:55:21;7.53;;;2.63;;
80199;SDS011;69520;44.900;-0.764;2023-08-31T06:57:48;11.47;;;2.90;;
80199;SDS011;69520;44.900;-0.764;2023-08-31T07:00:14;8.52;;;2.63;;
80199;SDS011;69520;44.900;-0.764;2023-08-31T07:02:40;9.93;;;2.63;;
80199;SDS011;69520;44.900;-0.764;2023-08-31T07:05:07;8.57;;;2.53;;
80199;SDS011;69520;44.900;-0.764;2023-08-31T07:07:33;9.13;;;2.97;;
80199;SDS011;69520;44.900;-0.764;2023-08-31T07:09:59;12.57;;;3.07;;
80199;SDS011;69520;44.900;-0.764;2023-08-31T07:12:25;9.80;;;2.50;;
80199;SDS011;69520;44.900;-0.764;2023-08-31T07:14:51;8.93;;;2.75;;
80199;SDS011;69520;44.900;-0.764;2023-08-31T07:17:18;10.35;;;3.10;;
80199;SDS011;69520;44.900;-0.764;2023-08-31T07:19:44;10.27;;;2.70;;
80199;SDS011;69520;44.900;-0.764;2023-08-31T07:22:10;10.43;;;3.20;;
80199;SDS011;69520;44.900;-0.764;2023-08-31T07:24:37;10.80;;;2.80;;
80199;SDS011;69520;44.900;-0.764;2023-08-31T07:27:03;9.45;;;3.35;;
80199;SDS011;69520;44.900;-0.764;2023-08-31T07:29:29;10.02;;;3.60;;
80199;SDS011;69520;44.900;-0.764;2023-08-31T07:31:56;9.18;;;2.95;;
80199;SDS011;69520;44.900;-0.764;2023-08-31T07:34:22;10.43;;;2.77;;
80199;SDS011;69520;44.900;-0.764;2023-08-31T07:36:49;11.55;;;3.10;;
80199;SDS011;69520;44.900;-0.764;2023-08-31T07:39:15;9.90;;;2.78;;
80199;SDS011;69520;44.900;-0.764;2023-08-31T07:41:44;9.02;;;3.00;;
80199;SDS011;69520;44.900;-0.764;2023-08-31T07:44:11;10.18;;;3.10;;
80199;SDS011;69520;44.900;-0.764;2023-08-31T07:46:37;8.07;;;2.63;;
80199;SDS011;69520;44.900;-0.764;2023-08-31T07:49:03;8.07;;;3.03;;
80199;SDS011;69520;44.900;-0.764;2023-08-31T07:51:29;10.85;;;2.88;;
80199;SDS011;69520;44.900;-0.764;2023-08-31T07:53:55;12.02;;;3.08;;
80199;SDS011;69520;44.900;-0.764;2023-08-31T07:56:22;7.68;;;2.92;;
80199;SDS011;69520;44.900;-0.764;2023-08-31T07:58:51;9.03;;;2.80;;
80199;SDS011;69520;44.900;-0.764;2023-08-31T08:01:18;8.10;;;2.83;;
80199;SDS011;69520;44.900;-0.764;2023-08-31T08:03:44;9.13;;;3.00;;
80199;SDS011;69520;44.900;-0.764;2023-08-31T08:06:10;9.23;;;2.90;;
80199;SDS011;69520;44.900;-0.764;2023-08-31T08:08:36;9.90;;;3.10;;
80199;SDS011;69520;44.900;-0.764;2023-08-31T08:11:03;9.47;;;2.80;;
80199;SDS011;69520;44.900;-0.764;2023-08-31T08:13:29;9.30;;;2.72;;
80199;SDS011;69520;44.900;-0.764;2023-08-31T08:15:55;8.23;;;2.70;;
80199;SDS011;69520;44.900;-0.764;2023-08-31T08:18:22;7.82;;;2.63;;
80199;SDS011;69520;44.900;-0.764;2023-08-31T08:20:48;7.93;;;3.13;;
80199;SDS011;69520;44.900;-0.764;2023-08-31T08:23:14;8.10;;;2.40;;
80199;SDS011;69520;44.900;-0.764;2023-08-31T08:25:40;9.77;;;2.75;;
80199;SDS011;69520;44.900;-0.764;2023-08-31T08:28:06;12.27;;;3.15;;
80199;SDS011;69520;44.900;-0.764;2023-08-31T08:30:32;9.07;;;2.97;;
80199;SDS011;69520;44.900;-0.764;2023-08-31T08:32:58;7.90;;;2.80;;
80199;SDS011;69520;44.900;-0.764;2023-08-31T08:35:24;9.07;;;3.10;;
80199;SDS011;69520;44.900;-0.764;2023-08-31T08:37:51;11.00;;;3.15;;
80199;SDS011;69520;44.900;-0.764;2023-08-31T08:40:17;9.18;;;2.47;;
80199;SDS011;69520;44.900;-0.764;2023-08-31T08:42:43;9.35;;;2.70;;
80199;SDS011;69520;44.900;-0.764;2023-08-31T08:45:13;8.25;;;2.15;;
80199;SDS011;69520;44.900;-0.764;2023-08-31T08:47:42;8.20;;;2.00;;
80199;SDS011;69520;44.900;-0.764;2023-08-31T08:50:10;7.45;;;2.30;;
80199;SDS011;69520;44.900;-0.764;2023-08-31T08:52:37;9.80;;;2.53;;
80199;SDS011;69520;44.900;-0.764;2023-08-31T08:55:04;8.05;;;2.50;;
80199;SDS011;69520;44.900;-0.764;2023-08-31T08:57:31;7.72;;;2.55;;
80199;SDS011;69520;44.900;-0.764;2023-08-31T08:59:57;8.10;;;2.40;;
80199;SDS011;69520;44.900;-0.764;2023-08-31T09:02:23;8.05;;;2.50;;
80199;SDS011;69520;44.900;-0.764;2023-08-31T09:04:49;8.27;;;2.90;;
80199;SDS011;69520;44.900;-0.764;2023-08-31T09:07:22;8.43;;;2.53;;
80199;SDS011;69520;44.900;-0.764;2023-08-31T09:09:53;9.00;;;2.83;;
80199;SDS011;69520;44.900;-0.764;2023-08-31T09:12:22;8.77;;;2.30;;
80199;SDS011;69520;44.900;-0.764;2023-08-31T09:15:02;8.95;;;2.60;;
80199;SDS011;69520;44.900;-0.764;2023-08-31T09:17:41;8.10;;;2.40;;
80199;SDS011;69520;44.900;-0.764;2023-08-31T09:20:12;7.40;;;2.10;;
80199;SDS011;69520;44.900;-0.764;2023-08-31T09:22:41;8.85;;;3.15;;
80199;SDS011;69520;44.900;-0.764;2023-08-31T09:25:09;8.73;;;2.80;;
80199;SDS011;69520;44.900;-0.764;2023-08-31T09:27:38;7.57;;;2.53;;
80199;SDS011;69520;44.900;-0.764;2023-08-31T09:30:06;9.40;;;3.13;;
80199;SDS011;69520;44.900;-0.764;2023-08-31T09:32:32;8.95;;;2.63;;
80199;SDS011;69520;44.900;-0.764;2023-08-31T09:34:58;8.57;;;2.83;;
80199;SDS011;69520;44.900;-0.764;2023-08-31T09:37:27;8.10;;;2.67;;
80199;SDS011;69520;44.900;-0.764;2023-08-31T09:39:53;9.00;;;2.85;;
80199;SDS011;69520;44.900;-0.764;2023-08-31T09:42:20;8.70;;;2.95;;
80199;SDS011;69520;44.900;-0.764;2023-08-31T09:44:49;9.07;;;3.05;;
80199;SDS011;69520;44.900;-0.764;2023-08-31T09:47:15;8.38;;;3.10;;
80199;SDS011;69520;44.900;-0.764;2023-08-31T09:49:42;9.27;;;3.00;;
80199;SDS011;69520;44.900;-0.764;2023-08-31T09:52:08;8.70;;;3.33;;
80199;SDS011;69520;44.900;-0.764;2023-08-31T09:54:35;10.13;;;3.25;;
80199;SDS011;69520;44.900;-0.764;2023-08-31T09:57:01;8.25;;;2.85;;
80199;SDS011;69520;44.900;-0.764;2023-08-31T09:59:27;7.65;;;2.90;;
80199;SDS011;69520;44.900;-0.764;2023-08-31T10:01:54;8.23;;;2.57;;
80199;SDS011;69520;44.900;-0.764;2023-08-31T10:04:21;7.13;;;2.95;;
80199;SDS011;69520;44.900;-0.764;2023-08-31T10:06:48;9.55;;;2.83;;
80199;SDS011;69520;44.900;-0.764;2023-08-31T10:09:14;7.95;;;2.72;;
80199;SDS011;69520;44.900;-0.764;2023-08-31T10:11:41;7.05;;;2.60;;
80199;SDS011;69520;44.900;-0.764;2023-08-31T10:14:08;9.27;;;2.80;;
80199;SDS011;69520;44.900;-0.764;2023-08-31T10:16:35;9.05;;;2.70;;
80199;SDS011;69520;44.900;-0.764;2023-08-31T10:19:02;8.45;;;2.40;;
80199;SDS011;69520;44.900;-0.764;2023-08-31T10:21:28;7.63;;;2.67;;
80199;SDS011;69520;44.900;-0.764;2023-08-31T10:23:54;7.82;;;2.67;;
80199;SDS011;69520;44.900;-0.764;2023-08-31T10:26:24;7.63;;;1.90;;
80199;SDS011;69520;44.900;-0.764;2023-08-31T10:28:51;5.80;;;2.10;;
80199;SDS011;69520;44.900;-0.764;2023-08-31T10:31:17;7.20;;;2.22;;
80199;SDS011;69520;44.900;-0.764;2023-08-31T10:33:43;7.03;;;2.33;;
80199;SDS011;69520;44.900;-0.764;2023-08-31T10:36:13;6.28;;;2.38;;
80199;SDS011;69520;44.900;-0.764;2023-08-31T10:38:40;6.10;;;2.23;;
80199;SDS011;69520;44.900;-0.764;2023-08-31T10:43:46;8.00;;;2.40;;
80199;SDS011;69520;44.900;-0.764;2023-08-31T10:46:15;7.40;;;2.75;;
80199;SDS011;69520;44.900;-0.764;2023-08-31T10:48:51;6.28;;;2.20;;
80199;SDS011;69520;44.900;-0.764;2023-08-31T10:51:17;7.13;;;2.40;;
80199;SDS011;69520;44.900;-0.764;2023-08-31T10:53:46;8.50;;;2.92;;
80199;SDS011;69520;44.900;-0.764;2023-08-31T10:56:12;8.07;;;2.80;;
80199;SDS011;69520;44.900;-0.764;2023-08-31T10:58:38;7.22;;;2.92;;
80199;SDS011;69520;44.900;-0.764;2023-08-31T11:01:04;8.43;;;2.83;;
80199;SDS011;69520;44.900;-0.764;2023-08-31T11:03:30;7.17;;;2.50;;
80199;SDS011;69520;44.900;-0.764;2023-08-31T11:05:56;8.27;;;2.95;;
80199;SDS011;69520;44.900;-0.764;2023-08-31T11:08:23;6.70;;;2.50;;
80199;SDS011;69520;44.900;-0.764;2023-08-31T11:10:49;8.43;;;2.60;;
80199;SDS011;69520;44.900;-0.764;2023-08-31T11:13:16;8.23;;;2.70;;
80199;SDS011;69520;44.900;-0.764;2023-08-31T11:15:45;6.00;;;2.53;;
80199;SDS011;69520;44.900;-0.764;2023-08-31T11:18:12;5.95;;;2.10;;
80199;SDS011;69520;44.900;-0.764;2023-08-31T11:20:41;5.65;;;2.08;;
80199;SDS011;69520;44.900;-0.764;2023-08-31T11:23:08;6.32;;;1.83;;
80199;SDS011;69520;44.900;-0.764;2023-08-31T11:25:34;5.72;;;1.50;;
80199;SDS011;69520;44.900;-0.764;2023-08-31T11:28:01;5.50;;;1.60;;
80199;SDS011;69520;44.900;-0.764;2023-08-31T11:30:30;4.40;;;1.30;;
80199;SDS011;69520;44.900;-0.764;2023-08-31T11:32:58;5.60;;;1.38;;
80199;SDS011;69520;44.900;-0.764;2023-08-31T11:35:30;4.43;;;1.30;;
80199;SDS011;69520;44.900;-0.764;2023-08-31T11:37:56;4.82;;;1.50;;
80199;SDS011;69520;44.900;-0.764;2023-08-31T11:40:23;4.70;;;1.20;;
80199;SDS011;69520;44.900;-0.764;2023-08-31T11:42:49;4.15;;;1.30;;
80199;SDS011;69520;44.900;-0.764;2023-08-31T11:45:15;6.10;;;1.30;;
80199;SDS011;69520;44.900;-0.764;2023-08-31T11:47:41;5.43;;;1.20;;
80199;SDS011;69520;44.900;-0.764;2023-08-31T11:50:09;4.43;;;1.10;;
80199;SDS011;69520;44.900;-0.764;2023-08-31T11:52:35;3.10;;;0.97;;
80199;SDS011;69520;44.900;-0.764;2023-08-31T11:55:01;3.10;;;0.70;;
80199;SDS011;69520;44.900;-0.764;2023-08-31T11:57:28;6.05;;;0.95;;
80199;SDS011;69520;44.900;-0.764;2023-08-31T11:59:54;3.58;;;0.90;;
80199;SDS011;69520;44.900;-0.764;2023-08-31T12:02:21;4.07;;;1.02;;
80199;SDS011;69520;44.900;-0.764;2023-08-31T12:04:47;4.00;;;1.00;;
80199;SDS011;69520;44.900;-0.764;2023-08-31T12:07:17;4.20;;;0.80;;
80199;SDS011;69520;44.900;-0.764;2023-08-31T12:09:44;3.72;;;1.00;;
80199;SDS011;69520;44.900;-0.764;2023-08-31T12:12:10;4.15;;;0.80;;
80199;SDS011;69520;44.900;-0.764;2023-08-31T12:14:37;4.82;;;0.80;;
80199;SDS011;69520;44.900;-0.764;2023-08-31T12:17:06;3.70;;;0.70;;
80199;SDS011;69520;44.900;-0.764;2023-08-31T12:19:33;2.78;;;0.68;;
80199;SDS011;69520;44.900;-0.764;2023-08-31T12:22:01;4.15;;;0.75;;
80199;SDS011;69520;44.900;-0.764;2023-08-31T12:24:27;3.40;;;0.80;;
80199;SDS011;69520;44.900;-0.764;2023-08-31T12:26:53;3.50;;;0.70;;
80199;SDS011;69520;44.900;-0.764;2023-08-31T12:29:20;3.87;;;0.63;;
80199;SDS011;69520;44.900;-0.764;2023-08-31T12:31:46;2.15;;;0.50;;
80199;SDS011;69520;44.900;-0.764;2023-08-31T12:34:12;4.45;;;0.77;;
80199;SDS011;69520;44.900;-0.764;2023-08-31T12:36:38;3.85;;;0.75;;
80199;SDS011;69520;44.900;-0.764;2023-08-31T12:39:07;3.50;;;0.70;;
80199;SDS011;69520;44.900;-0.764;2023-08-31T12:41:37;3.53;;;0.70;;
80199;SDS011;69520;44.900;-0.764;2023-08-31T12:44:03;3.42;;;0.75;;
80199;SDS011;69520;44.900;-0.764;2023-08-31T12:46:30;3.33;;;0.80;;
80199;SDS011;69520;44.900;-0.764;2023-08-31T12:48:56;2.80;;;0.70;;
80199;SDS011;69520;44.900;-0.764;2023-08-31T12:51:22;2.88;;;0.60;;
80199;SDS011;69520;44.900;-0.764;2023-08-31T12:53:48;3.67;;;0.70;;
80199;SDS011;69520;44.900;-0.764;2023-08-31T12:56:14;3.33;;;0.60;;
80199;SDS011;69520;44.900;-0.764;2023-08-31T12:58:50;3.35;;;0.60;;
80199;SDS011;69520;44.900;-0.764;2023-08-31T13:01:17;5.20;;;0.60;;
80199;SDS011;69520;44.900;-0.764;2023-08-31T13:03:43;4.30;;;0.68;;
80199;SDS011;69520;44.900;-0.764;2023-08-31T13:06:09;4.10;;;0.60;;
80199;SDS011;69520;44.900;-0.764;2023-08-31T13:08:35;2.58;;;0.50;;
80199;SDS011;69520;44.900;-0.764;2023-08-31T13:11:01;3.75;;;0.90;;
80199;SDS011;69520;44.900;-0.764;2023-08-31T13:13:29;3.20;;;0.70;;
80199;SDS011;69520;44.900;-0.764;2023-08-31T13:15:56;3.80;;;0.63;;
80199;SDS011;69520;44.900;-0.764;2023-08-31T13:18:22;5.07;;;0.73;;
80199;SDS011;69520;44.900;-0.764;2023-08-31T13:20:52;4.75;;;0.73;;
80199;SDS011;69520;44.900;-0.764;2023-08-31T13:23:18;3.80;;;0.60;;
80199;SDS011;69520;44.900;-0.764;2023-08-31T13:25:44;3.67;;;0.80;;
80199;SDS011;69520;44.900;-0.764;2023-08-31T13:28:11;3.38;;;0.70;;
80199;SDS011;69520;44.900;-0.764;2023-08-31T13:30:37;4.50;;;0.83;;
80199;SDS011;69520;44.900;-0.764;2023-08-31T13:33:03;3.42;;;0.60;;
80199;SDS011;69520;44.900;-0.764;2023-08-31T13:35:29;3.25;;;0.80;;
80199;SDS011;69520;44.900;-0.764;2023-08-31T13:37:55;4.95;;;0.95;;
80199;SDS011;69520;44.900;-0.764;2023-08-31T13:40:21;3.67;;;0.80;;
80199;SDS011;69520;44.900;-0.764;2023-08-31T13:42:57;5.20;;;0.80;;
80199;SDS011;69520;44.900;-0.764;2023-08-31T13:45:28;2.92;;;0.73;;
80199;SDS011;69520;44.900;-0.764;2023-08-31T13:47:54;4.40;;;0.63;;
80199;SDS011;69520;44.900;-0.764;2023-08-31T13:50:20;3.80;;;0.70;;
80199;SDS011;69520;44.900;-0.764;2023-08-31T13:52:46;4.88;;;0.90;;
80199;SDS011;69520;44.900;-0.764;2023-08-31T13:55:12;11.30;;;3.43;;
80199;SDS011;69520;44.900;-0.764;2023-08-31T13:57:40;6.55;;;1.08;;
80199;SDS011;69520;44.900;-0.764;2023-08-31T14:00:07;6.05;;;0.90;;
80199;SDS011;69520;44.900;-0.764;2023-08-31T14:02:36;4.53;;;0.95;;
80199;SDS011;69520;44.900;-0.764;2023-08-31T14:05:02;4.75;;;0.90;;
80199;SDS011;69520;44.900;-0.764;2023-08-31T14:07:29;4.53;;;0.93;;
80199;SDS011;69520;44.900;-0.764;2023-08-31T14:09:55;5.07;;;0.85;;
80199;SDS011;69520;44.900;-0.764;2023-08-31T14:12:21;6.43;;;1.10;;
80199;SDS011;69520;44.900;-0.764;2023-08-31T14:14:47;4.72;;;0.98;;
80199;SDS011;69520;44.900;-0.764;2023-08-31T14:17:13;3.92;;;1.00;;
80199;SDS011;69520;44.900;-0.764;2023-08-31T14:19:39;4.37;;;1.10;;
80199;SDS011;69520;44.900;-0.764;2023-08-31T14:22:05;4.97;;;0.90;;
80199;SDS011;69520;44.900;-0.764;2023-08-31T14:24:31;5.05;;;0.90;;
80199;SDS011;69520;44.900;-0.764;2023-08-31T14:26:57;4.93;;;0.88;;
80199;SDS011;69520;44.900;-0.764;2023-08-31T14:29:23;5.47;;;0.85;;
80199;SDS011;69520;44.900;-0.764;2023-08-31T14:31:49;7.93;;;0.90;;
80199;SDS011;69520;44.900;-0.764;2023-08-31T14:34:17;5.03;;;0.85;;
80199;SDS011;69520;44.900;-0.764;2023-08-31T14:36:43;3.72;;;0.70;;
80199;SDS011;69520;44.900;-0.764;2023-08-31T14:39:09;4.75;;;0.82;;
80199;SDS011;69520;44.900;-0.764;2023-08-31T14:41:35;4.47;;;0.80;;
80199;SDS011;69520;44.900;-0.764;2023-08-31T14:44:01;4.57;;;1.00;;